Grandville, Michigan
Current Conditions -  °F | °C
As of 9:53 PM on Saturday 22 Nov 2014 (Local Time) from KGRR Reporting Station
Haze Haze  
Wind Chill: 38°   Ceiling: 5500
Heat Index: 44°   Visibility: 5mi
Dew Point: 42°   Wind: 13mph
Humidity: 93%   Direction: 200°SSW
Pressure: 29.87"   Gusts: NA
Location:  42.91°N, 85.76°W
Report Text: KGRR 230253Z 20011KT 5SM BR OVC055 07/06 A2987 RMK AO2 SLP122 T00670056 50000
Loading
Personal Weather Stations






























Interactive Weather Map New forecast layout! Learn more

10-Day Weather Forecast

Advertisements
Track Severe Weather on mobile